Time;durP1;ratioP1;P1;durP2;ratioP2;P2;SDS_P1;SDS_P2;PMS_P1;PMS_P2;Temp;Humidity;BMP_temperature;BMP_pressure;BME280_temperature;BME280_humidity;BME280_pressure;Samples;Min_cycle;Max_cycle;Signal;HPM_P1;HPM_P2
2022/10/04 00:00:10;;;;;;;;;;;;;;;11.84;64.73;100772.87;5422916;32;34157;-74
2022/10/04 00:03:17;;;;;;;;;;;;;;;11.79;65.03;100770.41;5383065;32;48068;-74
2022/10/04 00:06:20;;;;;;;;;;;;;;;12.16;63.88;100761.94;5409351;32;35556;-70
2022/10/04 00:09:23;;;;;;;;;;;;;;;12.45;62.99;100757.28;5377588;32;32165;-70
2022/10/04 00:12:26;;;;;;;;;;;;;;;12.41;63.09;100761.81;5396190;32;35409;-70
2022/10/04 00:15:36;;;;;;;;;;;;;;;11.93;64.76;100768.13;5395986;32;34209;-71
2022/10/04 00:18:40;;;;;;;;;;;;;;;12.40;62.78;100769.78;5389260;32;35537;-70
2022/10/04 00:21:55;;;;;;;;;;;;;;;12.03;64.36;100762.47;5405687;32;43403;-74
2022/10/04 00:24:59;;;;;;;;;;;;;;;11.76;66.20;100775.78;5402455;32;35140;-70
2022/10/04 00:28:20;;;;;;;;;;;;;;;12.65;63.11;100767.88;5417507;32;34600;-75
2022/10/04 00:31:23;;;;;;;;;;;;;;;12.09;64.72;100778.91;5411845;32;34508;-73
2022/10/04 00:34:28;;;;;;;;;;;;;;;12.18;64.89;100770.66;5379098;32;35643;-70
2022/10/04 00:37:50;;;;;;;;;;;;;;;12.43;63.88;100769.69;5424862;32;34665;-71
2022/10/04 00:41:02;;;;;;;;;;;;;;;11.94;66.08;100766.34;5399520;32;34818;-69
2022/10/04 00:44:04;;;;;;;;;;;;;;;12.04;66.65;100772.94;5385878;32;35397;-69
2022/10/04 00:47:20;;;;;;;;;;;;;;;12.08;65.35;100750.00;5383376;32;34897;-74
2022/10/04 00:50:27;;;;;;;;;;;;;;;12.31;64.52;100747.31;5400951;32;34547;-70
2022/10/04 00:53:44;;;;;;;;;;;;;;;12.31;64.51;100742.03;5404615;32;34808;-70
2022/10/04 00:56:54;;;;;;;;;;;;;;;12.61;63.92;100744.31;5399104;32;43694;-72
2022/10/04 01:00:02;;;;;;;;;;;;;;;12.41;65.57;100732.81;5404413;32;35465;-71
2022/10/04 01:03:11;;;;;;;;;;;;;;;11.87;67.04;100747.28;5391741;32;35217;-69
2022/10/04 01:06:13;;;;;;;;;;;;;;;12.00;66.85;100752.94;5399324;32;45449;-73
2022/10/04 01:09:15;;;;;;;;;;;;;;;12.38;65.43;100746.13;5413833;32;34861;-74
2022/10/04 01:12:37;;;;;;;;;;;;;;;12.26;66.32;100737.88;5380438;32;35268;-74
2022/10/04 01:15:41;;;;;;;;;;;;;;;12.03;66.91;100746.69;5416981;32;33200;-70
2022/10/04 01:18:44;;;;;;;;;;;;;;;11.97;67.96;100737.22;5387190;32;46312;-70
2022/10/04 01:21:46;;;;;;;;;;;;;;;12.16;67.37;100737.38;5378784;32;34768;-75
2022/10/04 01:24:48;;;;;;;;;;;;;;;12.12;67.22;100735.78;5403588;32;34708;-75
2022/10/04 01:27:50;;;;;;;;;;;;;;;12.20;67.50;100729.28;5402849;32;34145;-74
2022/10/04 01:30:52;;;;;;;;;;;;;;;12.50;66.34;100736.03;5403134;32;34753;-74
2022/10/04 01:33:54;;;;;;;;;;;;;;;11.90;68.51;100728.72;5374147;32;35391;-70
2022/10/04 01:36:57;;;;;;;;;;;;;;;12.46;66.28;100720.31;5409474;32;35161;-70
2022/10/04 01:39:59;;;;;;;;;;;;;;;12.17;66.68;100725.91;5402213;32;35748;-75
2022/10/04 01:43:04;;;;;;;;;;;;;;;12.31;66.80;100726.22;5401086;32;35316;-74
2022/10/04 01:46:09;;;;;;;;;;;;;;;12.09;67.78;100723.59;5387341;32;34306;-69
2022/10/04 01:49:14;;;;;;;;;;;;;;;12.41;67.33;100721.41;5386165;32;46550;-70
2022/10/04 01:52:21;;;;;;;;;;;;;;;12.87;65.13;100708.91;5424416;32;35577;-70
2022/10/04 01:55:23;;;;;;;;;;;;;;;13.11;63.73;100709.62;5402045;32;34686;-70
2022/10/04 01:58:26;;;;;;;;;;;;;;;12.11;67.65;100727.03;5401839;32;35309;-70
2022/10/04 02:01:38;;;;;;;;;;;;;;;12.34;66.21;100728.72;5419264;32;35466;-75
2022/10/04 02:04:40;;;;;;;;;;;;;;;12.92;65.20;100721.00;5387850;32;45240;-72
2022/10/04 02:07:42;;;;;;;;;;;;;;;13.55;62.34;100712.94;5405605;32;34632;-74
2022/10/04 02:10:44;;;;;;;;;;;;;;;12.70;65.67;100728.97;5395377;32;34822;-71
2022/10/04 02:13:47;;;;;;;;;;;;;;;12.97;64.56;100716.38;5404222;32;36001;-75
2022/10/04 02:16:52;;;;;;;;;;;;;;;12.27;66.63;100726.41;5390218;32;35531;-70
2022/10/04 02:19:54;;;;;;;;;;;;;;;12.86;65.39;100730.94;5406482;32;35230;-74
2022/10/04 02:22:58;;;;;;;;;;;;;;;12.65;65.78;100741.50;5386523;32;35363;-73
2022/10/04 02:26:03;;;;;;;;;;;;;;;13.36;63.44;100738.47;5387251;32;35149;-75
2022/10/04 02:29:05;;;;;;;;;;;;;;;13.11;64.13;100736.03;5411618;32;34640;-74
2022/10/04 02:35:42;;;;;;;;;;;;;;;12.71;65.59;100732.47;5406005;32;34893;-75
2022/10/04 02:39:14;;;;;;;;;;;;;;;13.04;64.76;100748.63;5393466;32;45010;-74
2022/10/04 02:42:21;;;;;;;;;;;;;;;12.40;67.11;100746.06;5395887;32;44840;-74
2022/10/04 02:45:26;;;;;;;;;;;;;;;13.06;64.18;100738.00;5392440;32;35144;-74
2022/10/04 02:48:36;;;;;;;;;;;;;;;12.64;66.28;100738.94;5395782;32;35097;-74
2022/10/04 02:51:39;;;;;;;;;;;;;;;13.47;62.96;100741.50;5393029;32;35597;-72
2022/10/04 02:54:47;;;;;;;;;;;;;;;12.72;65.28;100736.81;5402677;32;47977;-74
2022/10/04 02:57:51;;;;;;;;;;;;;;;13.02;64.22;100737.28;5409080;32;35653;-70
2022/10/04 03:00:57;;;;;;;;;;;;;;;13.49;62.42;100736.97;5421845;32;34645;-70
2022/10/04 03:03:59;;;;;;;;;;;;;;;13.72;61.83;100725.37;5386502;32;35052;-73
2022/10/04 03:07:01;;;;;;;;;;;;;;;13.55;61.83;100726.16;5418462;32;34612;-71
2022/10/04 03:10:11;;;;;;;;;;;;;;;13.17;63.47;100735.75;5392854;32;34884;-71
2022/10/04 03:13:13;;;;;;;;;;;;;;;13.51;63.06;100741.25;5397824;32;44600;-73
2022/10/04 03:16:14;;;;;;;;;;;;;;;13.32;63.10;100740.38;5408185;32;34968;-70
2022/10/04 03:19:16;;;;;;;;;;;;;;;13.37;62.76;100734.91;5399362;32;34484;-74
2022/10/04 03:22:19;;;;;;;;;;;;;;;13.43;63.14;100724.91;5413391;32;34963;-76
2022/10/04 03:25:21;;;;;;;;;;;;;;;12.99;65.00;100719.81;5405445;32;34961;-70
2022/10/04 03:28:23;;;;;;;;;;;;;;;13.55;63.15;100731.44;5388345;32;35550;-75
2022/10/04 03:31:26;;;;;;;;;;;;;;;13.01;64.39;100725.88;5405275;32;35035;-69
2022/10/04 03:34:36;;;;;;;;;;;;;;;13.07;65.17;100731.78;5387399;32;34602;-74
2022/10/04 03:37:37;;;;;;;;;;;;;;;13.28;63.92;100730.91;5396229;32;35352;-73
2022/10/04 03:40:41;;;;;;;;;;;;;;;13.03;64.85;100725.81;5393976;32;34459;-70
2022/10/04 03:43:46;;;;;;;;;;;;;;;12.66;66.24;100732.66;5387267;32;44639;-74
2022/10/04 03:46:47;;;;;;;;;;;;;;;12.78;65.32;100733.94;5374408;32;34818;-70
2022/10/04 03:49:51;;;;;;;;;;;;;;;12.99;65.31;100733.00;5397797;32;35287;-69
2022/10/04 03:52:53;;;;;;;;;;;;;;;12.23;68.04;100730.06;5401954;32;34679;-74
2022/10/04 03:55:55;;;;;;;;;;;;;;;13.35;64.74;100731.47;5395163;32;34194;-74
2022/10/04 03:59:05;;;;;;;;;;;;;;;12.83;66.24;100726.69;5410004;32;34855;-70
2022/10/04 04:02:08;;;;;;;;;;;;;;;13.16;65.10;100720.84;5375625;32;34840;-75
2022/10/04 04:05:28;;;;;;;;;;;;;;;12.76;66.47;100724.38;5420985;32;45617;-73
2022/10/04 04:08:34;;;;;;;;;;;;;;;13.14;65.08;100722.72;5395927;32;35021;-74
2022/10/04 04:11:35;;;;;;;;;;;;;;;12.91;65.62;100724.56;5381005;32;34262;-71
2022/10/04 04:14:38;;;;;;;;;;;;;;;12.91;66.37;100719.28;5410266;32;35541;-74
2022/10/04 04:17:40;;;;;;;;;;;;;;;12.62;67.15;100723.19;5378896;32;35511;-70
2022/10/04 04:20:42;;;;;;;;;;;;;;;12.25;68.60;100731.75;5408465;32;44445;-75
2022/10/04 04:23:49;;;;;;;;;;;;;;;12.90;66.33;100733.41;5386416;32;36528;-70
2022/10/04 04:27:01;;;;;;;;;;;;;;;12.73;66.85;100726.19;5395306;32;35179;-71
2022/10/04 04:30:04;;;;;;;;;;;;;;;13.17;65.40;100720.78;5401002;32;34224;-75
2022/10/04 04:33:08;;;;;;;;;;;;;;;13.49;63.69;100740.47;5394416;32;34242;-76
2022/10/04 04:36:10;;;;;;;;;;;;;;;13.58;63.28;100749.75;5393045;32;34882;-73
2022/10/04 04:42:33;;;;;;;;;;;;;;;13.23;64.91;100738.16;5415912;32;35199;-70
2022/10/04 04:45:34;;;;;;;;;;;;;;;13.32;64.69;100743.00;5372638;32;34730;-70
2022/10/04 04:48:36;;;;;;;;;;;;;;;13.11;65.73;100736.03;5392130;32;34205;-70
2022/10/04 04:51:38;;;;;;;;;;;;;;;13.41;64.61;100750.53;5413656;32;34744;-70
2022/10/04 04:54:40;;;;;;;;;;;;;;;12.49;67.95;100745.69;5400395;32;45208;-72
2022/10/04 04:57:43;;;;;;;;;;;;;;;12.51;68.48;100758.81;5423657;32;35042;-71
2022/10/04 05:00:47;;;;;;;;;;;;;;;12.84;66.98;100753.91;5402904;32;35663;-74
2022/10/04 05:04:12;;;;;;;;;;;;;;;12.78;66.63;100757.66;5395807;32;34752;-69
2022/10/04 05:07:15;;;;;;;;;;;;;;;13.53;64.57;100763.19;5403949;32;44576;-70
2022/10/04 05:10:21;;;;;;;;;;;;;;;13.62;63.87;100759.25;5391418;32;35201;-74
2022/10/04 05:13:30;;;;;;;;;;;;;;;13.26;65.46;100764.41;5397893;32;35770;-75
2022/10/04 05:16:51;;;;;;;;;;;;;;;13.31;65.96;100762.44;5389343;32;34951;-70
2022/10/04 05:19:55;;;;;;;;;;;;;;;13.38;64.31;100766.50;5395689;32;35511;-75
2022/10/04 05:22:57;;;;;;;;;;;;;;;13.47;64.82;100775.81;5390982;32;35727;-71
2022/10/04 05:26:01;;;;;;;;;;;;;;;13.80;63.57;100782.19;5406909;32;34619;-74
2022/10/04 05:29:15;;;;;;;;;;;;;;;13.25;65.41;100775.87;5415458;32;34532;-71
2022/10/04 05:32:22;;;;;;;;;;;;;;;13.29;64.77;100780.13;5384208;32;44705;-81
2022/10/04 05:35:24;;;;;;;;;;;;;;;13.76;63.66;100782.41;5418493;32;34278;-82
2022/10/04 05:38:30;;;;;;;;;;;;;;;13.72;64.07;100783.50;5395877;32;35920;-76
2022/10/04 05:41:35;;;;;;;;;;;;;;;14.17;61.86;100787.53;5386979;32;35363;-74
2022/10/04 05:44:45;;;;;;;;;;;;;;;14.50;61.04;100793.03;5398568;32;35537;-66
2022/10/04 05:47:52;;;;;;;;;;;;;;;13.87;63.71;100801.25;5376018;32;44768;-65
2022/10/04 05:50:54;;;;;;;;;;;;;;;14.35;61.91;100799.87;5409082;32;34227;-75
2022/10/04 05:53:56;;;;;;;;;;;;;;;14.27;61.42;100804.69;5400082;32;32935;-69
2022/10/04 05:57:04;;;;;;;;;;;;;;;14.85;59.68;100807.16;5395103;32;34769;-68
2022/10/04 06:00:16;;;;;;;;;;;;;;;13.71;63.53;100813.44;5417034;32;37187;-67
2022/10/04 06:03:18;;;;;;;;;;;;;;;13.97;63.27;100805.19;5389945;32;46919;-70
2022/10/04 06:06:27;;;;;;;;;;;;;;;14.76;60.58;100810.28;5421279;32;35518;-69
2022/10/04 06:09:48;;;;;;;;;;;;;;;13.87;63.85;100824.19;5389932;32;34297;-68
2022/10/04 06:13:08;;;;;;;;;;;;;;;14.77;60.86;100823.41;5400550;32;35614;-67
2022/10/04 06:16:22;;;;;;;;;;;;;;;14.51;61.27;100822.03;5417967;32;44579;-68
2022/10/04 06:19:43;;;;;;;;;;;;;;;14.47;61.97;100827.56;5402515;32;34385;-70
2022/10/04 06:22:46;;;;;;;;;;;;;;;14.93;60.68;100833.22;5421521;32;43743;-69
2022/10/04 06:25:55;;;;;;;;;;;;;;;14.12;63.46;100838.00;5408559;32;34359;-70
2022/10/04 06:28:59;;;;;;;;;;;;;;;14.72;61.29;100838.66;5408779;32;36003;-72
2022/10/04 06:32:01;;;;;;;;;;;;;;;14.91;60.98;100838.59;5398046;32;34810;-70
2022/10/04 06:35:06;;;;;;;;;;;;;;;14.72;60.99;100833.37;5402385;32;34589;-72
2022/10/04 06:38:19;;;;;;;;;;;;;;;14.79;61.29;100841.84;5404268;32;35396;-75
2022/10/04 06:41:21;;;;;;;;;;;;;;;14.51;62.49;100845.84;5395499;32;34194;-84
2022/10/04 06:44:27;;;;;;;;;;;;;;;15.12;60.58;100834.88;5408544;32;37475;-73
2022/10/04 06:47:33;;;;;;;;;;;;;;;14.69;61.94;100824.72;5404223;32;36638;-77
2022/10/04 06:50:38;;;;;;;;;;;;;;;14.40;62.68;100816.37;5411654;32;35145;-86
2022/10/04 06:53:39;;;;;;;;;;;;;;;14.80;62.42;100823.25;5420871;32;44683;-81
2022/10/04 06:56:52;;;;;;;;;;;;;;;14.26;63.92;100847.91;5404360;32;34488;-74
2022/10/04 07:00:01;;;;;;;;;;;;;;;14.24;64.16;100847.13;5402800;32;34207;-80
2022/10/04 07:03:07;;;;;;;;;;;;;;;14.77;63.01;100852.53;5387727;32;35302;-72
2022/10/04 07:06:10;;;;;;;;;;;;;;;14.69;63.37;100851.19;5388757;32;35371;-70
2022/10/04 07:09:18;;;;;;;;;;;;;;;15.43;61.22;100849.19;5406344;32;45324;-72
2022/10/04 07:12:20;;;;;;;;;;;;;;;15.37;59.92;100860.09;5376572;32;35546;-74
2022/10/04 07:15:23;;;;;;;;;;;;;;;13.93;65.28;100858.25;5419913;32;35356;-76
2022/10/04 07:18:30;;;;;;;;;;;;;;;14.83;62.80;100876.03;5391757;32;34236;-70
2022/10/04 07:21:35;;;;;;;;;;;;;;;14.29;64.55;100874.19;5406553;32;34134;-75
2022/10/04 07:24:37;;;;;;;;;;;;;;;14.13;65.48;100882.00;5410276;32;34253;-75
2022/10/04 07:31:21;;;;;;;;;;;;;;;15.36;60.44;100871.63;5424864;32;36040;-76
2022/10/04 07:34:25;;;;;;;;;;;;;;;14.94;61.67;100882.56;5389164;32;35230;-82
2022/10/04 07:37:27;;;;;;;;;;;;;;;14.77;62.50;100876.34;5423143;32;35542;-84
2022/10/04 07:40:32;;;;;;;;;;;;;;;15.23;61.05;100873.19;5397062;32;37210;-77
2022/10/04 07:43:40;;;;;;;;;;;;;;;14.60;62.03;100879.78;5406770;32;36183;-84
2022/10/04 07:46:45;;;;;;;;;;;;;;;16.06;58.36;100883.84;5398669;32;44562;-86
2022/10/04 07:49:52;;;;;;;;;;;;;;;15.86;58.95;100876.97;5411957;32;35531;-77
2022/10/04 07:53:00;;;;;;;;;;;;;;;15.56;58.47;100883.84;5418337;32;35661;-72
2022/10/04 07:56:07;;;;;;;;;;;;;;;15.61;58.17;100885.31;5395027;32;34003;-79
2022/10/04 07:59:28;;;;;;;;;;;;;;;15.39;58.96;100880.28;5407843;32;34185;-76
2022/10/04 08:02:40;;;;;;;;;;;;;;;15.39;58.73;100885.59;5410236;32;34290;-74
2022/10/04 08:06:01;;;;;;;;;;;;;;;15.70;57.65;100876.91;5393957;32;44527;-72
2022/10/04 08:09:03;;;;;;;;;;;;;;;15.46;57.57;100883.47;5415551;32;33627;-79
2022/10/04 08:12:17;;;;;;;;;;;;;;;16.11;56.26;100891.56;5414057;32;35067;-83
2022/10/04 08:15:27;;;;;;;;;;;;;;;16.36;55.02;100893.72;5396521;32;45159;-84
2022/10/04 08:18:48;;;;;;;;;;;;;;;15.61;56.76;100898.56;5405420;32;35765;-77
2022/10/04 08:21:53;;;;;;;;;;;;;;;15.79;55.82;100904.75;5410205;32;36572;-76
2022/10/04 08:25:04;;;;;;;;;;;;;;;16.10;54.96;100897.78;5424473;32;34977;-78
2022/10/04 08:31:27;;;;;;;;;;;;;;;15.67;56.29;100910.69;5406003;32;34385;-75
2022/10/04 08:34:43;;;;;;;;;;;;;;;15.88;55.54;100914.84;5418044;32;34469;-76
2022/10/04 08:37:48;;;;;;;;;;;;;;;15.56;56.87;100916.50;5402531;32;45497;-77
2022/10/04 08:40:53;;;;;;;;;;;;;;;15.66;57.05;100925.72;5421481;32;34273;-79
2022/10/04 08:44:13;;;;;;;;;;;;;;;15.83;55.20;100919.53;5403699;32;34438;-80
2022/10/04 08:47:34;;;;;;;;;;;;;;;16.28;55.18;100917.16;5401516;32;44784;-86
2022/10/04 08:50:55;;;;;;;;;;;;;;;16.40;55.05;100914.69;5417051;32;33361;-84
2022/10/04 08:54:18;;;;;;;;;;;;;;;16.44;54.23;100924.22;5401175;32;34462;-80
2022/10/04 08:57:36;;;;;;;;;;;;;;;16.69;53.47;100933.47;5409776;32;35658;-80
2022/10/04 09:00:49;;;;;;;;;;;;;;;16.30;54.96;100932.06;5419251;32;34332;-75
2022/10/04 09:04:30;;;;;;;;;;;;;;;17.28;52.23;100922.13;5394000;32;34300;-87
2022/10/04 09:07:50;;;;;;;;;;;;;;;17.24;51.52;100917.06;5346683;32;35813;-75
2022/10/04 09:11:05;;;;;;;;;;;;;;;16.30;53.43;100934.72;5362939;32;36112;-81
2022/10/04 09:14:26;;;;;;;;;;;;;;;17.36;51.48;100915.50;5371329;32;909126;-70
2022/10/04 09:17:34;;;;;;;;;;;;;;;17.94;49.77;100893.41;5419036;32;35773;-74
2022/10/04 09:20:45;;;;;;;;;;;;;;;18.27;48.30;100891.28;5394754;32;33651;-76
2022/10/04 09:24:05;;;;;;;;;;;;;;;17.58;49.87;100916.81;5397724;32;45941;-71
2022/10/04 09:27:13;;;;;;;;;;;;;;;17.21;50.47;100926.06;5418899;32;34797;-76
2022/10/04 09:30:37;;;;;;;;;;;;;;;16.85;51.96;100922.88;5402571;32;35814;-72
2022/10/04 09:33:58;;;;;;;;;;;;;;;16.18;52.55;100914.16;5417098;32;34311;-84
2022/10/04 09:37:10;;;;;;;;;;;;;;;16.05;52.51;100921.06;5406115;32;34276;-77
2022/10/04 09:40:19;;;;;;;;;;;;;;;16.94;50.59;100933.84;5411691;32;45186;-82
2022/10/04 09:43:39;;;;;;;;;;;;;;;16.86;50.28;100927.22;5414668;32;34290;-83
2022/10/04 09:46:41;;;;;;;;;;;;;;;17.38;49.92;100933.03;5384991;32;45316;-79
2022/10/04 09:49:50;;;;;;;;;;;;;;;17.16;50.25;100933.44;5409155;32;35474;-78
2022/10/04 09:53:11;;;;;;;;;;;;;;;16.37;52.58;100936.09;5399094;32;35620;-78
2022/10/04 09:56:23;;;;;;;;;;;;;;;17.46;49.33;100920.19;5400817;32;44505;-73
2022/10/04 09:59:36;;;;;;;;;;;;;;;16.48;51.15;100946.97;5412013;32;33180;-74
2022/10/04 10:02:57;;;;;;;;;;;;;;;16.55;51.13;100946.63;5405754;32;33348;-70
2022/10/04 10:06:25;;;;;;;;;;;;;;;16.11;51.84;100945.47;5410872;32;32543;-73
2022/10/04 10:13:38;;;;;;;;;;;;;;;16.33;51.08;100952.25;5416010;32;34553;-71
2022/10/04 10:16:38;;;;;;;;;;;;;;;17.02;49.46;100944.00;5405200;32;44897;-78
2022/10/04 10:19:59;;;;;;;;;;;;;;;17.59;48.07;100947.75;5406529;32;44523;-84
2022/10/04 10:23:04;;;;;;;;;;;;;;;16.73;50.88;100957.12;5405023;32;33098;-73
2022/10/04 10:26:42;;;;;;;;;;;;;;;17.76;48.76;100960.03;5411051;32;36320;-77
2022/10/04 10:30:02;;;;;;;;;;;;;;;17.54;49.33;100965.75;5296663;32;34177;-79
2022/10/04 10:33:04;;;;;;;;;;;;;;;17.13;50.02;100965.50;5399099;32;34287;-75
2022/10/04 10:36:24;;;;;;;;;;;;;;;17.03;49.26;100966.97;5421103;32;34917;-77
2022/10/04 10:39:32;;;;;;;;;;;;;;;17.89;47.03;100948.66;5405841;32;37240;-76
2022/10/04 10:42:53;;;;;;;;;;;;;;;18.49;44.72;100951.16;5415228;32;34211;-77
2022/10/04 10:46:15;;;;;;;;;;;;;;;17.67;48.03;100952.59;5365742;32;34364;-76
2022/10/04 10:49:17;;;;;;;;;;;;;;;17.99;47.85;100955.16;5408214;32;45390;-84
2022/10/04 10:52:35;;;;;;;;;;;;;;;17.89;47.93;100946.00;5419739;32;36299;-77
2022/10/04 10:55:48;;;;;;;;;;;;;;;17.80;48.09;100940.31;5403352;32;35905;-78
2022/10/04 10:58:49;;;;;;;;;;;;;;;17.24;48.15;100955.09;5412451;32;38194;-74
2022/10/04 11:02:03;;;;;;;;;;;;;;;18.62;45.33;100941.44;5399416;32;34930;-74
2022/10/04 11:05:25;;;;;;;;;;;;;;;18.02;46.01;100934.53;5407108;32;35622;-80
2022/10/04 11:08:47;;;;;;;;;;;;;;;17.62;47.34;100945.84;5415545;32;36074;-82
2022/10/04 11:12:07;;;;;;;;;;;;;;;18.15;45.55;100937.28;5402367;32;44624;-83
2022/10/04 11:15:29;;;;;;;;;;;;;;;17.65;45.67;100951.84;5407723;32;34168;-74
2022/10/04 11:18:34;;;;;;;;;;;;;;;18.27;45.92;100947.16;5415452;32;34234;-79
2022/10/04 11:22:06;;;;;;;;;;;;;;;18.01;45.42;100943.47;5423914;32;34065;-77
2022/10/04 11:25:28;;;;;;;;;;;;;;;18.46;44.72;100935.37;5412937;32;34948;-72
2022/10/04 11:28:30;;;;;;;;;;;;;;;18.65;44.38;100946.56;5387423;32;35421;-77
2022/10/04 11:31:41;;;;;;;;;;;;;;;19.31;42.77;100943.13;5408428;32;35996;-70
2022/10/04 11:35:02;;;;;;;;;;;;;;;18.25;44.04;100943.75;5412698;32;46230;-75
2022/10/04 11:38:07;;;;;;;;;;;;;;;17.55;46.11;100958.63;5399751;32;34193;-74
2022/10/04 11:41:28;;;;;;;;;;;;;;;18.79;43.06;100946.56;5418223;32;34197;-75
2022/10/04 11:44:55;;;;;;;;;;;;;;;17.98;44.97;100954.31;5403743;32;36255;-75
2022/10/04 11:48:00;;;;;;;;;;;;;;;17.30;46.48;100953.91;5393794;32;35544;-74
2022/10/04 11:51:11;;;;;;;;;;;;;;;18.50;44.20;100950.22;5418212;32;34264;-73
2022/10/04 11:54:23;;;;;;;;;;;;;;;18.62;43.36;100944.97;5386868;32;44846;-75
2022/10/04 11:57:44;;;;;;;;;;;;;;;18.63;43.60;100951.13;5403719;32;33025;-79
2022/10/04 12:00:59;;;;;;;;;;;;;;;18.59;43.83;100944.28;5420381;32;48139;-76
2022/10/04 12:04:10;;;;;;;;;;;;;;;17.52;46.30;100950.84;5407682;32;34219;-80
2022/10/04 12:07:34;;;;;;;;;;;;;;;17.83;45.74;100944.56;5410894;32;44711;-72
2022/10/04 12:10:38;;;;;;;;;;;;;;;17.91;45.78;100942.31;5403194;32;35399;-78
2022/10/04 12:13:50;;;;;;;;;;;;;;;17.99;45.84;100944.50;5370570;32;44925;-77
2022/10/04 12:16:53;;;;;;;;;;;;;;;18.48;45.58;100947.62;5415938;32;34395;-80
2022/10/04 12:19:58;;;;;;;;;;;;;;;17.97;46.95;100947.28;5405490;32;34320;-82
2022/10/04 12:23:00;;;;;;;;;;;;;;;18.04;46.25;100943.28;5416887;32;34328;-72
2022/10/04 12:26:21;;;;;;;;;;;;;;;18.75;44.79;100949.53;5400788;32;34460;-79
2022/10/04 12:29:39;;;;;;;;;;;;;;;18.50;43.85;100952.88;5408895;32;37304;-75
2022/10/04 12:32:51;;;;;;;;;;;;;;;18.42;44.30;100958.69;5411526;32;46189;-84
2022/10/04 12:36:17;;;;;;;;;;;;;;;18.49;45.27;100946.69;5406173;32;34454;-72
2022/10/04 12:39:30;;;;;;;;;;;;;;;18.41;45.42;100939.16;5416334;32;44532;-71
2022/10/04 12:42:35;;;;;;;;;;;;;;;18.93;44.05;100943.00;5410355;32;35553;-75
2022/10/04 12:45:55;;;;;;;;;;;;;;;19.80;42.46;100942.53;5370839;32;33712;-69
2022/10/04 12:49:27;;;;;;;;;;;;;;;19.31;42.76;100948.47;5405703;32;35530;-70
2022/10/04 12:52:37;;;;;;;;;;;;;;;19.40;42.49;100949.69;5381232;32;34122;-74
2022/10/04 12:55:42;;;;;;;;;;;;;;;19.07;43.49;100944.78;5401864;32;34311;-79
2022/10/04 12:58:50;;;;;;;;;;;;;;;18.34;46.01;100956.47;5397862;32;44518;-79
2022/10/04 13:02:11;;;;;;;;;;;;;;;19.09;43.54;100940.19;5404007;32;36846;-81
2022/10/04 13:05:32;;;;;;;;;;;;;;;19.91;42.16;100942.66;5403529;32;44665;-84
2022/10/04 13:08:37;;;;;;;;;;;;;;;20.33;41.60;100947.75;5394062;32;35545;-80
2022/10/04 13:11:51;;;;;;;;;;;;;;;21.13;39.63;100945.53;5418392;32;35798;-81
2022/10/04 13:14:59;;;;;;;;;;;;;;;21.89;37.42;100937.88;5411469;32;34402;-78
2022/10/04 13:18:19;;;;;;;;;;;;;;;21.47;36.59;100944.72;5404964;32;34270;-79
2022/10/04 13:21:21;;;;;;;;;;;;;;;20.14;38.94;100938.34;5425750;32;36259;-82
2022/10/04 13:24:53;;;;;;;;;;;;;;;23.90;33.11;100925.00;5410547;32;35561;-89
2022/10/04 13:28:01;;;;;;;;;;;;;;;25.17;30.67;100931.66;5399769;32;35743;-95
2022/10/04 13:31:13;;;;;;;;;;;;;;;26.73;27.58;100931.16;5398976;32;34320;-81
2022/10/04 13:34:15;;;;;;;;;;;;;;;25.36;29.60;100934.34;5395812;32;44390;-75
2022/10/04 13:37:17;;;;;;;;;;;;;;;26.66;27.49;100936.31;5413543;32;34228;-78
2022/10/04 13:40:29;;;;;;;;;;;;;;;26.97;26.65;100920.59;5400117;32;34471;-77
2022/10/04 13:43:57;;;;;;;;;;;;;;;24.58;29.89;100941.44;5392110;32;34245;-76
2022/10/04 13:46:59;;;;;;;;;;;;;;;21.66;34.96;100935.28;5377155;32;37572;-83
2022/10/04 13:50:12;;;;;;;;;;;;;;;19.79;38.54;100948.81;5414252;32;35696;-79
2022/10/04 13:56:38;;;;;;;;;;;;;;;18.32;41.15;100954.88;5414681;32;34237;-78
2022/10/04 13:59:43;;;;;;;;;;;;;;;19.79;38.86;100955.97;5409596;32;44726;-84
2022/10/04 14:02:55;;;;;;;;;;;;;;;19.06;40.01;100965.22;5417163;32;34354;-80
2022/10/04 14:06:02;;;;;;;;;;;;;;;18.14;41.48;100967.50;5408857;32;35889;-77
2022/10/04 14:09:17;;;;;;;;;;;;;;;18.53;41.33;100964.16;5405950;32;34214;-84
2022/10/04 14:12:39;;;;;;;;;;;;;;;18.45;41.28;100976.25;5405220;32;44547;-80
2022/10/04 14:15:41;;;;;;;;;;;;;;;18.33;41.00;100976.06;5398712;32;44961;-67
2022/10/04 14:18:52;;;;;;;;;;;;;;;17.57;43.05;100985.97;5414979;32;34847;-81
2022/10/04 14:22:13;;;;;;;;;;;;;;;18.74;41.45;100969.09;5402086;32;36039;-80
2022/10/04 14:25:26;;;;;;;;;;;;;;;19.14;41.04;100978.06;5413776;32;44627;-81
2022/10/04 14:28:34;;;;;;;;;;;;;;;18.65;42.58;100976.69;5393586;32;33184;-79
2022/10/04 14:31:45;;;;;;;;;;;;;;;19.09;41.85;100982.81;5386743;32;34576;-67
2022/10/04 14:34:57;;;;;;;;;;;;;;;18.20;44.10;100985.75;5418353;32;44690;-79
2022/10/04 14:38:03;;;;;;;;;;;;;;;18.61;43.19;100982.31;5372174;32;34959;-80
2022/10/04 14:41:20;;;;;;;;;;;;;;;18.31;44.51;100985.09;5424652;32;34918;-79
2022/10/04 14:44:23;;;;;;;;;;;;;;;18.24;44.27;100994.41;5381373;32;35141;-81
2022/10/04 14:47:25;;;;;;;;;;;;;;;18.48;43.79;100990.22;5387047;32;36956;-66
2022/10/04 14:50:27;;;;;;;;;;;;;;;18.10;44.79;100989.94;5425172;32;35335;-79
2022/10/04 14:53:36;;;;;;;;;;;;;;;17.39;46.59;101006.53;5396393;32;34305;-79
2022/10/04 14:56:47;;;;;;;;;;;;;;;18.06;45.08;100996.37;5419105;32;34134;-80
2022/10/04 14:59:56;;;;;;;;;;;;;;;17.78;43.72;101006.03;5397294;32;44643;-67
2022/10/04 15:03:03;;;;;;;;;;;;;;;17.89;43.74;101001.84;5402909;32;34566;-66
2022/10/04 15:06:11;;;;;;;;;;;;;;;18.12;42.83;101002.19;5415622;32;35606;-67
2022/10/04 15:09:16;;;;;;;;;;;;;;;18.17;43.22;101012.56;5385955;32;44772;-66
2022/10/04 15:12:23;;;;;;;;;;;;;;;17.55;44.04;101019.75;5417410;32;34357;-67
2022/10/04 15:16:06;;;;;;;;;;;;;;;17.98;43.74;101012.81;5411352;32;44895;-78
2022/10/04 15:19:20;;;;;;;;;;;;;;;18.37;42.51;101019.31;5393979;32;47482;-80
2022/10/04 15:22:37;;;;;;;;;;;;;;;17.38;44.66;101023.37;5418152;32;36228;-67
2022/10/04 15:25:46;;;;;;;;;;;;;;;17.36;44.51;101021.78;5411377;32;35304;-79
2022/10/04 15:28:48;;;;;;;;;;;;;;;17.66;44.09;101027.97;5408392;32;44723;-80
2022/10/04 15:32:01;;;;;;;;;;;;;;;17.84;43.54;101024.28;5395851;32;34316;-67
2022/10/04 15:35:20;;;;;;;;;;;;;;;18.12;43.16;101026.13;5392746;32;34252;-67
2022/10/04 15:38:22;;;;;;;;;;;;;;;18.09;43.00;101022.78;5409801;32;34575;-67
2022/10/04 15:41:26;;;;;;;;;;;;;;;16.92;45.90;101038.41;5410309;32;34715;-67
2022/10/04 15:44:27;;;;;;;;;;;;;;;17.35;44.94;101036.00;5405848;32;34261;-67
2022/10/04 15:47:37;;;;;;;;;;;;;;;17.66;44.76;101038.59;5390599;32;34412;-67
2022/10/04 15:50:39;;;;;;;;;;;;;;;17.87;44.08;101041.84;5383702;32;34870;-79
2022/10/04 15:53:55;;;;;;;;;;;;;;;18.31;43.28;101036.50;5412943;32;45394;-66
2022/10/04 15:57:24;;;;;;;;;;;;;;;18.56;43.00;101046.50;5404814;32;35428;-66
2022/10/04 16:00:27;;;;;;;;;;;;;;;18.24;44.72;101044.97;5420360;32;34901;-80
2022/10/04 16:03:29;;;;;;;;;;;;;;;18.59;44.31;101051.63;5390196;32;35417;-67
2022/10/04 16:06:33;;;;;;;;;;;;;;;17.46;46.93;101068.16;5413917;32;34783;-67
2022/10/04 16:09:36;;;;;;;;;;;;;;;17.80;46.30;101065.28;5413958;32;35448;-66
2022/10/04 16:12:56;;;;;;;;;;;;;;;17.27;47.75;101073.63;5398770;32;34297;-66
2022/10/04 16:16:20;;;;;;;;;;;;;;;17.80;46.66;101073.25;5420036;32;34849;-80
2022/10/04 16:19:30;;;;;;;;;;;;;;;17.26;48.30;101075.44;5397719;32;34293;-79
2022/10/04 16:22:33;;;;;;;;;;;;;;;17.35;48.38;101082.03;5389200;32;34979;-80
2022/10/04 16:25:36;;;;;;;;;;;;;;;16.77;49.83;101080.78;5392346;32;34620;-67
2022/10/04 16:28:57;;;;;;;;;;;;;;;16.88;49.56;101092.62;5403922;32;35017;-67
2022/10/04 16:32:03;;;;;;;;;;;;;;;16.77;50.43;101096.69;5418856;32;35612;-66